Time;durP1;ratioP1;P1;durP2;ratioP2;P2;SDS_P1;SDS_P2;PMS_P1;PMS_P2;Temp;Humidity;BMP_temperature;BMP_pressure;BME280_temperature;BME280_humidity;BME280_pressure;Samples;Min_cycle;Max_cycle;Signal;HPM_P1;HPM_P2
2023/08/25 00:02:27;;;;;;;8.40;6.80;;;;;;;15.82;69.56;97174.41;108646;1254;94620;-81
2023/08/25 00:04:55;;;;;;;8.40;7.20;;;;;;;15.84;70.07;97182.91;108635;1254;102504;-81
2023/08/25 00:07:23;;;;;;;9.80;6.50;;;;;;;15.84;69.93;97185.25;108661;1255;101588;-82
2023/08/25 00:09:50;;;;;;;9.70;6.30;;;;;;;15.84;69.78;97185.97;108683;1254;100127;-81
2023/08/25 00:12:18;;;;;;;8.40;6.00;;;;;;;15.82;69.92;97186.59;108650;1254;94247;-81
2023/08/25 00:14:46;;;;;;;9.70;5.40;;;;;;;15.82;70.07;97182.89;108682;1254;94547;-81
2023/08/25 00:17:13;;;;;;;10.60;6.70;;;;;;;15.81;69.96;97182.95;108661;1255;102405;-83
2023/08/25 00:19:41;;;;;;;8.50;6.50;;;;;;;15.80;70.03;97185.88;108658;1254;101549;-80
2023/08/25 00:22:09;;;;;;;10.80;6.50;;;;;;;15.79;69.98;97178.99;108627;1254;109004;-83
2023/08/25 00:24:36;;;;;;;9.20;6.30;;;;;;;15.78;70.15;97178.98;108590;1259;94197;-83
2023/08/25 00:27:04;;;;;;;9.60;7.10;;;;;;;15.75;70.12;97177.09;108656;1255;94603;-80
2023/08/25 00:29:32;;;;;;;8.80;6.60;;;;;;;15.65;70.85;97171.11;108686;1255;102368;-81
2023/08/25 00:31:59;;;;;;;11.70;7.50;;;;;;;15.47;71.44;97161.17;108648;1254;101599;-82
2023/08/25 00:34:27;;;;;;;9.90;6.70;;;;;;;15.30;71.35;97157.03;108635;1259;107732;-81
2023/08/25 00:36:55;;;;;;;8.50;6.00;;;;;;;15.21;71.34;97160.59;108656;1254;94205;-83
2023/08/25 00:39:22;;;;;;;8.30;7.50;;;;;;;15.22;71.42;97163.16;108700;1254;94454;-80
2023/08/25 00:41:50;;;;;;;10.10;7.20;;;;;;;15.27;71.47;97166.61;108713;1254;109240;-81
2023/08/25 00:44:18;;;;;;;13.70;7.60;;;;;;;15.28;71.62;97162.44;108684;1254;101795;-80
2023/08/25 00:46:45;;;;;;;9.30;6.50;;;;;;;15.31;71.86;97165.81;108695;1254;100210;-82
2023/08/25 00:49:14;;;;;;;7.80;6.30;;;;;;;15.34;71.50;97162.65;108602;1254;94196;-82
2023/08/25 00:51:42;;;;;;;9.30;6.70;;;;;;;15.37;71.79;97161.88;108639;1254;94424;-81
2023/08/25 00:54:10;;;;;;;10.20;6.80;;;;;;;15.39;71.50;97161.04;108695;1254;102427;-81
2023/08/25 00:56:38;;;;;;;8.60;6.40;;;;;;;15.38;71.41;97161.46;108697;1254;108095;-81
2023/08/25 00:59:06;;;;;;;8.50;6.70;;;;;;;15.39;71.49;97171.70;108649;1254;99792;-83
2023/08/25 01:01:34;;;;;;;8.10;6.30;;;;;;;15.39;71.45;97167.30;108646;1254;94257;-81
2023/08/25 01:04:03;;;;;;;11.80;6.90;;;;;;;15.39;71.41;97160.77;108683;1254;94680;-82
2023/08/25 01:06:30;;;;;;;10.90;6.70;;;;;;;15.38;71.42;97165.65;108677;1254;102298;-80
2023/08/25 01:08:58;;;;;;;13.00;6.50;;;;;;;15.36;71.37;97165.23;108694;1254;101487;-81
2023/08/25 01:11:54;;;;;;;14.00;6.70;;;;;;;15.35;71.46;97162.77;108614;1254;99911;-81
2023/08/25 01:14:40;;;;;;;9.20;6.20;;;;;;;15.33;71.62;97156.55;108595;1254;94557;-82
2023/08/25 01:17:43;;;;;;;7.60;6.50;;;;;;;15.32;71.90;97152.13;108630;1254;95045;-83
2023/08/25 01:20:14;;;;;;;9.50;6.60;;;;;;;15.22;72.34;97150.54;108526;1254;109339;-83
2023/08/25 01:22:41;;;;;;;10.90;6.80;;;;;;;15.13;72.59;97152.73;108658;1255;101550;-82
2023/08/25 01:25:29;;;;;;;10.30;6.90;;;;;;;15.03;72.89;97145.60;108640;1254;100144;-82
2023/08/25 01:28:02;;;;;;;8.50;6.10;;;;;;;14.93;73.12;97137.91;108351;1257;94336;-84
2023/08/25 01:30:32;;;;;;;7.20;6.50;;;;;;;14.83;73.45;97134.77;108436;1257;94858;-81
2023/08/25 01:33:00;;;;;;;8.30;6.70;;;;;;;14.75;73.71;97129.95;108438;1257;102517;-81
2023/08/25 01:35:51;;;;;;;10.50;6.70;;;;;;;14.67;74.30;97123.99;108416;1257;101747;-83
2023/08/25 01:38:30;;;;;;;9.70;6.30;;;;;;;14.58;74.37;97124.14;108402;1257;99739;-81
2023/08/25 01:41:16;;;;;;;11.00;7.20;;;;;;;14.51;74.50;97126.13;108428;1260;95664;-81
2023/08/25 01:43:49;;;;;;;10.60;7.70;;;;;;;14.50;74.51;97132.02;108426;1260;96020;-81
2023/08/25 01:46:18;;;;;;;8.90;7.60;;;;;;;14.51;74.47;97140.13;108407;1257;103846;-81
2023/08/25 01:48:51;;;;;;;8.60;7.40;;;;;;;14.55;74.50;97138.59;108449;1257;103092;-83
2023/08/25 01:51:19;;;;;;;;;;;;;;;14.62;74.25;97136.44;108416;1257;99887;-82
2023/08/25 01:53:54;;;;;;;7.40;6.20;;;;;;;14.67;74.46;97134.04;108375;1257;95727;-81
2023/08/25 01:56:23;;;;;;;14.30;7.40;;;;;;;14.71;74.16;97130.87;108455;1257;96522;-82
2023/08/25 01:58:51;;;;;;;12.00;7.30;;;;;;;14.75;74.07;97133.48;108291;1257;103789;-81
2023/08/25 02:01:19;;;;;;;8.70;6.80;;;;;;;14.78;74.10;97133.20;108339;1257;101742;-83
2023/08/25 02:03:46;;;;;;;8.40;6.80;;;;;;;14.79;73.99;97128.27;108363;1257;100230;-81
2023/08/25 02:06:14;;;;;;;8.70;6.40;;;;;;;14.82;73.96;97128.39;108289;1259;96196;-81
2023/08/25 02:08:42;;;;;;;8.30;6.80;;;;;;;14.85;73.81;97133.23;108288;1257;96070;-84
2023/08/25 02:11:10;;;;;;;10.30;7.10;;;;;;;14.86;73.97;97132.41;108302;1258;104012;-83
2023/08/25 02:13:37;;;;;;;8.90;6.60;;;;;;;14.87;73.98;97134.77;108317;1257;109291;-81
2023/08/25 02:16:05;;;;;;;9.60;6.90;;;;;;;14.82;73.96;97131.31;108342;1257;100102;-82
2023/08/25 02:18:33;;;;;;;9.90;7.40;;;;;;;14.78;74.08;97131.69;108300;1257;95605;-80
2023/08/25 02:21:01;;;;;;;11.30;7.80;;;;;;;14.80;74.29;97129.16;108367;1257;96217;-82
2023/08/25 02:23:28;;;;;;;9.10;6.10;;;;;;;14.71;74.10;97124.44;108333;1257;110436;-84
2023/08/25 02:25:56;;;;;;;9.00;6.80;;;;;;;14.61;74.21;97117.90;108339;1257;111060;-83
2023/08/25 02:28:24;;;;;;;10.20;6.90;;;;;;;14.53;74.51;97115.04;108345;1257;100136;-84
2023/08/25 02:30:52;;;;;;;10.70;6.40;;;;;;;14.45;74.88;97111.55;108345;1257;95876;-83
2023/08/25 02:33:19;;;;;;;11.90;7.80;;;;;;;14.38;75.08;97112.22;108292;1257;96014;-81
2023/08/25 02:35:47;;;;;;;10.50;8.30;;;;;;;14.33;75.47;97110.23;108328;1257;103471;-83
2023/08/25 02:38:15;;;;;;;13.20;8.00;;;;;;;14.26;76.25;97100.79;108675;1254;101862;-84
2023/08/25 02:40:42;;;;;;;12.10;7.70;;;;;;;14.18;77.40;97092.06;108653;1254;100190;-82
2023/08/25 02:43:10;;;;;;;10.00;7.90;;;;;;;14.11;77.44;97078.30;108638;1254;95556;-82
2023/08/25 02:45:38;;;;;;;9.70;7.90;;;;;;;14.12;76.59;97079.30;108671;1254;96072;-83
2023/08/25 02:48:06;;;;;;;13.00;8.40;;;;;;;14.17;76.24;97076.80;108672;1254;110202;-83
2023/08/25 02:50:34;;;;;;;10.70;7.80;;;;;;;14.22;76.82;97075.33;108601;1254;101686;-85
2023/08/25 02:53:02;;;;;;;13.60;8.30;;;;;;;14.22;77.03;97067.77;108647;1254;100124;-83
2023/08/25 02:55:29;;;;;;;10.30;8.50;;;;;;;14.23;76.78;97063.56;108620;1254;95535;-81
2023/08/25 02:57:57;;;;;;;14.10;8.20;;;;;;;14.27;76.97;97058.91;108675;1254;95987;-82
2023/08/25 03:00:25;;;;;;;10.90;7.30;;;;;;;14.31;76.75;97054.85;108707;1254;103859;-83
2023/08/25 03:02:53;;;;;;;9.70;7.50;;;;;;;14.31;76.66;97050.52;108647;1254;101444;-82
2023/08/25 03:05:21;;;;;;;15.50;7.90;;;;;;;14.28;76.71;97043.98;108672;1254;100112;-82
2023/08/25 03:07:52;;;;;;;16.40;8.50;;;;;;;14.21;77.07;97037.63;108636;1254;95511;-84
2023/08/25 03:10:20;;;;;;;11.20;8.70;;;;;;;14.18;76.89;97038.43;108634;1254;95929;-82
2023/08/25 03:12:47;;;;;;;12.40;8.30;;;;;;;14.22;76.89;97043.73;108685;1254;103679;-82
2023/08/25 03:15:15;;;;;;;9.70;8.20;;;;;;;14.26;76.87;97047.42;108643;1254;111201;-82
2023/08/25 03:17:43;;;;;;;11.30;8.30;;;;;;;14.26;76.96;97051.29;108615;1254;100141;-82
2023/08/25 03:20:11;;;;;;;9.90;7.90;;;;;;;14.30;76.94;97053.25;108666;1254;95609;-81
2023/08/25 03:22:38;;;;;;;10.30;8.20;;;;;;;14.35;76.94;97054.12;108700;1254;96085;-83
2023/08/25 03:25:07;;;;;;;10.60;7.40;;;;;;;14.36;76.90;97055.49;108711;1254;103778;-83
2023/08/25 03:27:36;;;;;;;8.50;7.60;;;;;;;14.34;76.84;97056.01;108636;1254;101676;-82
2023/08/25 03:30:06;;;;;;;13.10;8.00;;;;;;;14.34;76.92;97056.22;108659;1254;100194;-81
2023/08/25 03:32:34;;;;;;;8.80;7.50;;;;;;;14.37;76.80;97061.96;108545;1254;95549;-82
2023/08/25 03:35:02;;;;;;;11.70;7.80;;;;;;;14.41;77.12;97066.36;108660;1254;96035;-84
2023/08/25 03:37:29;;;;;;;10.70;7.80;;;;;;;14.37;77.26;97071.70;108661;1254;103642;-83
2023/08/25 03:39:57;;;;;;;11.20;7.50;;;;;;;14.37;77.16;97070.75;108658;1254;101620;-82
2023/08/25 03:42:25;;;;;;;12.50;7.90;;;;;;;14.41;77.03;97072.07;108617;1254;109030;-82
2023/08/25 03:44:52;;;;;;;9.60;7.80;;;;;;;14.44;77.10;97078.09;108633;1254;95537;-82
2023/08/25 03:47:20;;;;;;;16.40;8.40;;;;;;;14.43;77.19;97083.02;108668;1254;95985;-84
2023/08/25 03:49:48;;;;;;;12.10;8.90;;;;;;;14.43;77.29;97084.16;108665;1254;103722;-84
2023/08/25 03:52:16;;;;;;;10.10;8.10;;;;;;;14.44;77.14;97087.82;108657;1254;109347;-82
2023/08/25 03:54:43;;;;;;;11.00;8.00;;;;;;;14.43;77.26;97087.74;108627;1254;100302;-84
2023/08/25 03:57:11;;;;;;;10.90;7.80;;;;;;;14.44;77.15;97094.33;108603;1254;95566;-83
2023/08/25 03:59:39;;;;;;;15.30;8.40;;;;;;;14.45;77.34;97088.50;108662;1254;96404;-81
2023/08/25 04:02:07;;;;;;;13.40;8.10;;;;;;;14.45;77.37;97086.79;108667;1254;103738;-83
2023/08/25 04:04:34;;;;;;;8.90;7.70;;;;;;;14.44;77.27;97080.87;108711;1254;101717;-83
2023/08/25 04:07:03;;;;;;;13.40;8.80;;;;;;;14.45;77.58;97073.34;108635;1254;99801;-82
2023/08/25 04:09:31;;;;;;;13.60;8.90;;;;;;;14.44;77.77;97076.36;108638;1254;95607;-83
2023/08/25 04:11:59;;;;;;;9.70;8.10;;;;;;;14.47;77.83;97077.56;108651;1254;96007;-83
2023/08/25 04:14:26;;;;;;;11.60;8.50;;;;;;;14.50;77.49;97091.99;108637;1254;113004;-85
2023/08/25 04:16:54;;;;;;;10.50;8.80;;;;;;;14.54;77.70;97097.98;108674;1254;101721;-84
2023/08/25 04:19:22;;;;;;;10.70;8.60;;;;;;;14.58;77.70;97104.37;108651;1254;100278;-84
2023/08/25 04:21:50;;;;;;;9.50;8.50;;;;;;;14.62;78.04;97110.02;108607;1254;95496;-85
2023/08/25 04:24:18;;;;;;;12.40;9.20;;;;;;;14.60;78.11;97111.48;108640;1254;96124;-82
2023/08/25 04:26:46;;;;;;;11.30;8.50;;;;;;;14.61;78.03;97108.61;108655;1254;111557;-85
2023/08/25 04:29:14;;;;;;;11.00;9.50;;;;;;;14.65;78.19;97100.48;108653;1254;101585;-83
2023/08/25 04:31:42;;;;;;;15.60;11.50;;;;;;;14.69;78.05;97096.21;108653;1254;100146;-83
2023/08/25 04:34:09;;;;;;;12.00;9.10;;;;;;;14.74;78.14;97099.98;108651;1254;95888;-84
2023/08/25 04:36:39;;;;;;;12.10;9.10;;;;;;;14.78;78.15;97097.45;108546;1254;97098;-84
2023/08/25 04:39:07;;;;;;;15.00;8.80;;;;;;;14.83;78.40;97094.39;108645;1254;103786;-83
2023/08/25 04:41:34;;;;;;;14.20;9.70;;;;;;;14.86;78.58;97085.61;108648;1254;101568;-85
2023/08/25 04:44:02;;;;;;;15.80;10.40;;;;;;;14.85;79.03;97072.14;108690;1254;100169;-82
2023/08/25 04:46:30;;;;;;;14.00;9.40;;;;;;;14.86;78.96;97072.14;108637;1254;95583;-82
2023/08/25 04:48:58;;;;;;;10.80;8.80;;;;;;;14.92;78.93;97066.27;108694;1254;96041;-84
2023/08/25 04:51:25;;;;;;;12.30;8.90;;;;;;;14.98;79.04;97066.15;108646;1254;111320;-84
2023/08/25 04:53:53;;;;;;;12.00;8.90;;;;;;;15.05;78.93;97062.30;108683;1254;109410;-84
2023/08/25 04:56:21;;;;;;;13.80;9.40;;;;;;;15.10;79.45;97061.98;108633;1254;100122;-82
2023/08/25 04:58:48;;;;;;;13.80;9.70;;;;;;;15.17;79.22;97058.77;108620;1254;95673;-83
2023/08/25 05:01:16;;;;;;;15.60;11.20;;;;;;;15.25;79.18;97058.52;108661;1254;95982;-83
2023/08/25 05:03:44;;;;;;;13.30;11.80;;;;;;;15.32;79.22;97052.09;108623;1254;103760;-83
2023/08/25 05:06:12;;;;;;;15.40;10.80;;;;;;;15.37;79.89;97048.69;108661;1254;101445;-84
2023/08/25 05:08:40;;;;;;;13.50;9.40;;;;;;;15.43;79.78;97041.06;108658;1254;99896;-82
2023/08/25 05:11:09;;;;;;;11.90;9.40;;;;;;;15.51;79.40;97038.95;108644;1254;95580;-83
2023/08/25 05:13:36;;;;;;;14.50;9.70;;;;;;;15.61;79.39;97040.51;108674;1254;95990;-83
2023/08/25 05:16:04;;;;;;;11.80;9.60;;;;;;;15.70;79.71;97041.70;108682;1254;103772;-81
2023/08/25 05:18:32;;;;;;;10.10;9.00;;;;;;;15.79;79.45;97036.39;108656;1254;101702;-84
2023/08/25 05:21:00;;;;;;;10.60;8.40;;;;;;;15.89;79.44;97030.31;108575;1254;108926;-83
2023/08/25 05:23:28;;;;;;;14.40;8.30;;;;;;;15.99;79.38;97035.10;108588;1254;96085;-83
2023/08/25 05:25:56;;;;;;;14.30;9.00;;;;;;;16.09;79.19;97035.00;108659;1254;95990;-84
2023/08/25 05:28:24;;;;;;;12.10;9.30;;;;;;;16.18;79.21;97025.24;108704;1254;103747;-83
2023/08/25 05:30:52;;;;;;;10.50;8.50;;;;;;;16.30;78.84;97022.31;108676;1254;110398;-82
2023/08/25 05:33:20;;;;;;;11.30;8.50;;;;;;;16.39;78.99;97017.23;108669;1254;107811;-83
2023/08/25 05:35:47;;;;;;;10.40;8.50;;;;;;;16.49;79.37;97013.02;108670;1254;95556;-82
2023/08/25 05:38:15;;;;;;;12.90;9.30;;;;;;;16.60;79.55;97006.72;108687;1254;96074;-82
2023/08/25 05:40:43;;;;;;;11.10;9.20;;;;;;;16.71;79.48;97000.98;108650;1254;103610;-82
2023/08/25 05:43:10;;;;;;;13.20;9.00;;;;;;;16.80;79.51;96990.21;108627;1254;101437;-82
2023/08/25 05:45:38;;;;;;;11.40;9.00;;;;;;;16.90;79.55;96990.02;108626;1254;100648;-85
2023/08/25 05:48:06;;;;;;;14.90;9.10;;;;;;;17.01;79.50;96993.09;108628;1254;95512;-83
2023/08/25 05:50:35;;;;;;;10.80;8.60;;;;;;;17.12;79.37;96983.14;108685;1254;95973;-83
2023/08/25 05:53:03;;;;;;;11.70;8.90;;;;;;;17.23;79.26;96980.53;108637;1254;103515;-82
2023/08/25 05:55:31;;;;;;;12.10;9.30;;;;;;;17.34;79.39;96986.16;108630;1254;101621;-83
2023/08/25 05:57:59;;;;;;;14.50;8.90;;;;;;;17.45;79.39;96986.27;108539;1254;100069;-84
2023/08/25 06:00:26;;;;;;;11.70;8.50;;;;;;;17.57;79.32;96984.42;108504;1254;95550;-84
2023/08/25 06:02:54;;;;;;;11.30;8.70;;;;;;;17.67;79.19;96980.61;108537;1254;95578;-84
2023/08/25 06:05:22;;;;;;;11.60;8.10;;;;;;;17.76;78.98;96974.31;108590;1254;103826;-83
2023/08/25 06:07:49;;;;;;;11.10;8.10;;;;;;;17.87;78.62;96971.78;108565;1254;101717;-82
2023/08/25 06:10:17;;;;;;;10.10;8.10;;;;;;;17.98;78.56;96970.95;108593;1254;100217;-84
2023/08/25 06:12:45;;;;;;;10.00;8.00;;;;;;;18.09;78.84;96967.27;108628;1254;95629;-84
2023/08/25 06:15:13;;;;;;;12.40;8.50;;;;;;;18.22;78.70;96958.27;108673;1254;96033;-82
2023/08/25 06:17:40;;;;;;;11.10;8.30;;;;;;;18.37;78.93;96953.05;108698;1254;103526;-81
2023/08/25 06:20:09;;;;;;;11.80;8.10;;;;;;;18.54;78.62;96950.56;108679;1254;101844;-82
2023/08/25 06:22:37;;;;;;;12.10;8.10;;;;;;;18.69;78.46;96945.49;108614;1254;100154;-82
2023/08/25 06:25:05;;;;;;;12.30;8.40;;;;;;;18.84;78.56;96942.75;108640;1254;95565;-80
2023/08/25 06:27:33;;;;;;;12.70;8.30;;;;;;;18.98;78.39;96950.27;108640;1254;97107;-82
2023/08/25 06:30:02;;;;;;;9.20;8.00;;;;;;;19.10;77.69;96953.16;108662;1254;112381;-81
2023/08/25 06:32:30;;;;;;;11.00;7.50;;;;;;;19.22;77.56;96950.13;108689;1254;101717;-86
2023/08/25 06:34:58;;;;;;;11.70;7.80;;;;;;;19.37;77.00;96948.23;108665;1254;100069;-83
2023/08/25 06:37:26;;;;;;;11.60;7.90;;;;;;;19.52;76.44;96944.20;108642;1254;96008;-83
2023/08/25 06:39:53;;;;;;;10.50;7.30;;;;;;;19.67;76.33;96934.55;108668;1254;96066;-81
2023/08/25 06:42:21;;;;;;;17.10;8.50;;;;;;;19.81;76.05;96922.11;108683;1254;103529;-82
2023/08/25 06:44:49;;;;;;;8.90;7.80;;;;;;;19.96;76.09;96911.46;108616;1254;110366;-81
2023/08/25 06:47:17;;;;;;;10.20;7.80;;;;;;;20.07;75.85;96913.41;108593;1254;106810;-81
2023/08/25 06:49:44;;;;;;;10.30;7.60;;;;;;;20.20;75.32;96914.60;108632;1254;95543;-82
2023/08/25 06:52:12;;;;;;;9.80;7.50;;;;;;;20.33;74.30;96918.73;108691;1254;96034;-82
2023/08/25 06:54:39;;;;;;;11.30;7.50;;;;;;;20.48;74.17;96917.93;108698;1254;103573;-83
2023/08/25 06:57:08;;;;;;;9.50;7.80;;;;;;;20.63;74.39;96914.63;108707;1254;101555;-82
2023/08/25 06:59:35;;;;;;;9.80;7.40;;;;;;;20.75;74.29;96918.08;108649;1254;100149;-83
2023/08/25 07:02:03;;;;;;;12.80;7.70;;;;;;;20.88;73.99;96915.48;108612;1254;95547;-81
2023/08/25 07:04:32;;;;;;;11.70;7.50;;;;;;;21.00;73.41;96912.73;108631;1254;95976;-84
2023/08/25 07:07:00;;;;;;;9.90;7.60;;;;;;;21.11;72.88;96910.93;108639;1254;112354;-85
2023/08/25 07:09:28;;;;;;;8.00;6.80;;;;;;;21.21;72.15;96907.06;108614;1254;101554;-83
2023/08/25 07:11:56;;;;;;;9.50;6.90;;;;;;;21.32;71.44;96901.20;108662;1254;100221;-83
2023/08/25 07:14:24;;;;;;;8.40;6.60;;;;;;;21.42;71.09;96892.55;108657;1254;95623;-82
2023/08/25 07:16:52;;;;;;;9.70;6.90;;;;;;;21.51;71.12;96893.42;108634;1254;96035;-84
2023/08/25 07:19:19;;;;;;;8.20;7.10;;;;;;;21.55;71.22;96891.51;108662;1254;103687;-82
2023/08/25 07:21:47;;;;;;;8.10;6.80;;;;;;;21.56;70.74;96891.82;108666;1254;101616;-81
2023/08/25 07:24:15;;;;;;;7.50;6.70;;;;;;;21.58;70.38;96890.16;108665;1254;100031;-82
2023/08/25 07:26:42;;;;;;;7.80;7.00;;;;;;;21.60;69.89;96891.13;108641;1254;95529;-81
2023/08/25 07:29:10;;;;;;;9.90;7.00;;;;;;;21.63;69.59;96887.94;108678;1254;97043;-81
2023/08/25 07:31:38;;;;;;;10.60;7.10;;;;;;;21.67;69.69;96891.25;108651;1255;103476;-82
2023/08/25 07:34:06;;;;;;;8.30;6.60;;;;;;;21.72;69.65;96890.86;108673;1254;101464;-82
2023/08/25 07:36:33;;;;;;;9.60;7.70;;;;;;;21.77;69.71;96886.55;108624;1254;108903;-82
2023/08/25 07:39:01;;;;;;;8.60;7.50;;;;;;;21.80;69.73;96886.55;108646;1254;95624;-83
2023/08/25 07:41:29;;;;;;;8.60;7.50;;;;;;;21.84;70.00;96889.31;108709;1254;96018;-81
2023/08/25 07:43:57;;;;;;;8.90;7.00;;;;;;;21.89;70.31;96893.46;108694;1254;103919;-83
2023/08/25 07:46:25;;;;;;;11.70;7.30;;;;;;;21.93;70.30;96903.64;108668;1254;101742;-81
2023/08/25 07:48:53;;;;;;;15.30;6.70;;;;;;;21.98;69.71;96908.36;108583;1254;100180;-83
2023/08/25 07:51:20;;;;;;;10.60;7.40;;;;;;;22.02;69.30;96906.90;108644;1254;95602;-82
2023/08/25 07:53:48;;;;;;;9.80;6.70;;;;;;;22.05;69.52;96906.36;108716;1254;96425;-82
2023/08/25 07:56:16;;;;;;;9.30;7.50;;;;;;;22.08;69.52;96909.07;108667;1254;103678;-83
2023/08/25 07:58:44;;;;;;;10.40;7.30;;;;;;;22.11;68.25;96905.27;108708;1254;108350;-80
2023/08/25 08:01:11;;;;;;;11.00;7.00;;;;;;;22.13;67.62;96910.09;108661;1254;99662;-81
2023/08/25 08:03:39;;;;;;;9.30;6.70;;;;;;;22.18;67.32;96911.17;108647;1255;95575;-81
2023/08/25 08:06:07;;;;;;;11.40;6.80;;;;;;;22.24;67.42;96912.08;108703;1254;97037;-81
2023/08/25 08:08:34;;;;;;;10.60;7.10;;;;;;;22.30;67.51;96911.28;108654;1254;103772;-81
2023/08/25 08:11:02;;;;;;;9.10;6.30;;;;;;;22.35;67.26;96910.14;108684;1254;101769;-82
2023/08/25 08:13:30;;;;;;;12.60;7.20;;;;;;;22.42;67.13;96914.48;108592;1254;100152;-81
2023/08/25 08:15:58;;;;;;;9.10;7.40;;;;;;;22.51;67.09;96920.94;108597;1254;95858;-82
2023/08/25 08:18:25;;;;;;;11.10;6.90;;;;;;;22.59;66.90;96925.65;108684;1254;96064;-83
2023/08/25 08:20:54;;;;;;;9.20;7.60;;;;;;;22.65;66.38;96931.57;108576;1254;155091;-83
2023/08/25 08:23:22;;;;;;;10.40;7.40;;;;;;;22.64;66.01;96934.25;108687;1254;110760;-82
2023/08/25 08:25:50;;;;;;;10.50;6.90;;;;;;;22.64;65.68;96934.31;108639;1254;100071;-83
2023/08/25 08:28:18;;;;;;;8.00;7.20;;;;;;;22.61;66.00;96933.91;108615;1254;96080;-83
2023/08/25 08:30:46;;;;;;;9.70;7.50;;;;;;;22.61;66.84;96930.23;108689;1254;96017;-82
2023/08/25 08:33:13;;;;;;;7.80;6.80;;;;;;;22.60;66.82;96923.09;108688;1254;103932;-83
2023/08/25 08:35:41;;;;;;;11.10;7.80;;;;;;;22.61;66.51;96917.86;108661;1254;101577;-84
2023/08/25 08:38:09;;;;;;;9.60;7.40;;;;;;;22.60;66.70;96915.94;108626;1254;107820;-83
2023/08/25 08:40:37;;;;;;;9.30;7.50;;;;;;;22.61;66.49;96909.49;108600;1254;95985;-81
2023/08/25 08:43:10;;;;;;;11.30;7.30;;;;;;;22.63;66.20;96916.23;108698;1254;96064;-81
2023/08/25 08:45:40;;;;;;;11.90;7.30;;;;;;;22.65;65.82;96919.95;108703;1254;103757;-85
2023/08/25 08:48:08;;;;;;;11.00;7.30;;;;;;;22.65;65.41;96923.69;108656;1254;101735;-81
2023/08/25 08:50:37;;;;;;;10.50;7.60;;;;;;;22.68;65.79;96926.73;108647;1254;99790;-81
2023/08/25 08:53:05;;;;;;;9.20;7.40;;;;;;;22.76;66.11;96928.10;108612;1254;95543;-82
2023/08/25 08:55:35;;;;;;;10.30;7.00;;;;;;;22.84;65.31;96927.30;108653;1254;95929;-83
2023/08/25 08:58:03;;;;;;;15.50;7.70;;;;;;;22.90;65.12;96929.23;108698;1254;102631;-82
2023/08/25 09:00:32;;;;;;;12.10;7.20;;;;;;;22.95;65.20;96928.98;108687;1254;110399;-83
2023/08/25 09:03:03;;;;;;;8.10;7.10;;;;;;;22.98;65.03;96932.39;108620;1254;100134;-84
2023/08/25 09:05:34;;;;;;;9.30;7.70;;;;;;;23.01;64.94;96928.77;108670;1254;95893;-83
2023/08/25 09:08:06;;;;;;;10.80;7.60;;;;;;;23.01;65.25;96927.45;108695;1254;96022;-81
2023/08/25 09:10:34;;;;;;;10.60;8.10;;;;;;;23.02;65.60;96925.84;108421;1256;112469;-81
2023/08/25 09:13:02;;;;;;;10.50;7.90;;;;;;;23.00;65.97;96918.59;108711;1254;101558;-81
2023/08/25 09:15:32;;;;;;;14.50;8.10;;;;;;;22.98;66.14;96916.00;108632;1254;109542;-83
2023/08/25 09:18:05;;;;;;;11.40;8.20;;;;;;;22.93;66.34;96920.45;108610;1254;95528;-84
2023/08/25 09:20:34;;;;;;;10.40;7.80;;;;;;;22.93;66.79;96925.95;108705;1254;96076;-84
2023/08/25 09:23:03;;;;;;;13.40;8.20;;;;;;;22.92;66.86;96920.95;108683;1254;103811;-83
2023/08/25 09:25:32;;;;;;;16.30;8.60;;;;;;;22.92;67.16;96919.59;108715;1254;100715;-83
2023/08/25 09:28:04;;;;;;;12.20;8.50;;;;;;;22.92;67.31;96921.67;108682;1254;100167;-82
2023/08/25 09:30:37;;;;;;;9.20;8.20;;;;;;;22.92;67.72;96921.63;108664;1254;95503;-83
2023/08/25 09:33:06;;;;;;;9.60;8.20;;;;;;;22.92;67.62;96922.89;108661;1254;96145;-81
2023/08/25 09:35:34;;;;;;;10.60;8.60;;;;;;;22.93;67.81;96924.46;108679;1254;103630;-83
2023/08/25 09:38:02;;;;;;;13.00;8.90;;;;;;;22.94;68.10;96920.36;108708;1254;101553;-84
2023/08/25 09:40:31;;;;;;;10.30;8.40;;;;;;;22.93;68.58;96919.40;108661;1254;100093;-81
2023/08/25 09:43:04;;;;;;;9.10;8.20;;;;;;;22.93;68.22;96918.47;108672;1254;95535;-82
2023/08/25 09:45:33;;;;;;;11.30;8.80;;;;;;;22.96;68.27;96913.48;108717;1254;96001;-83
2023/08/25 09:48:08;;;;;;;14.70;8.90;;;;;;;23.04;68.33;96912.81;108698;1254;110419;-84
2023/08/25 09:50:40;;;;;;;10.30;8.00;;;;;;;23.11;68.39;96918.58;108706;1254;101696;-85
2023/08/25 09:53:08;;;;;;;;;;;;;;;23.18;68.57;96908.95;108665;1254;100165;-85
2023/08/25 09:55:37;;;;;;;14.00;9.20;;;;;;;23.28;68.40;96907.67;108650;1254;95677;-82
2023/08/25 09:58:06;;;;;;;11.10;9.10;;;;;;;23.41;68.32;96904.92;108676;1254;96284;-82
2023/08/25 10:00:35;;;;;;;10.30;8.70;;;;;;;23.55;67.96;96896.04;108728;1254;103731;-81
2023/08/25 10:03:11;;;;;;;9.00;8.00;;;;;;;23.70;67.88;96893.92;108684;1254;101884;-84
2023/08/25 10:05:41;;;;;;;11.50;8.40;;;;;;;23.90;67.49;96893.75;108640;1254;100117;-83
2023/08/25 10:08:09;;;;;;;12.80;9.40;;;;;;;24.20;67.25;96891.86;108641;1254;95550;-82
2023/08/25 10:10:39;;;;;;;14.00;8.80;;;;;;;24.57;67.04;96889.28;108668;1254;96081;-81
2023/08/25 10:13:12;;;;;;;10.40;8.10;;;;;;;24.93;66.50;96889.44;108598;1254;103752;-81
2023/08/25 10:15:41;;;;;;;16.20;8.80;;;;;;;25.15;65.14;96891.30;108678;1254;101518;-81
2023/08/25 10:18:13;;;;;;;10.80;8.30;;;;;;;25.18;62.40;96888.02;108622;1254;100184;-84
2023/08/25 10:20:43;;;;;;;10.20;8.80;;;;;;;25.15;61.94;96881.96;108681;1254;95513;-82
2023/08/25 10:23:12;;;;;;;10.90;8.40;;;;;;;25.20;62.62;96884.17;108713;1254;96032;-82
2023/08/25 10:25:40;;;;;;;13.20;9.20;;;;;;;25.24;62.59;96884.19;108682;1256;103468;-83
2023/08/25 10:28:09;;;;;;;12.60;8.40;;;;;;;25.27;62.54;96878.80;108694;1254;101550;-82
2023/08/25 10:30:38;;;;;;;14.60;8.70;;;;;;;25.31;62.05;96879.32;108637;1254;108514;-84
2023/08/25 10:33:12;;;;;;;12.60;9.00;;;;;;;25.33;61.45;96879.14;108644;1254;95790;-82
2023/08/25 10:35:49;;;;;;;12.70;9.00;;;;;;;25.36;61.45;96875.39;108734;1254;95984;-83
2023/08/25 10:38:20;;;;;;;10.30;7.90;;;;;;;25.42;61.23;96874.29;108708;1254;103576;-82
2023/08/25 10:40:54;;;;;;;10.50;7.80;;;;;;;25.51;60.86;96877.05;108669;1254;100512;-83
2023/08/25 10:43:32;;;;;;;12.10;7.60;;;;;;;25.64;60.77;96874.71;108659;1254;100163;-84
2023/08/25 10:46:09;;;;;;;10.90;7.70;;;;;;;25.76;60.22;96870.88;108654;1254;95648;-83
2023/08/25 10:48:43;;;;;;;9.80;7.50;;;;;;;25.86;59.89;96867.08;108712;1254;95538;-86
2023/08/25 10:51:19;;;;;;;12.40;7.20;;;;;;;25.93;59.70;96863.50;108710;1254;103701;-87
2023/08/25 10:53:49;;;;;;;10.80;7.80;;;;;;;26.03;59.83;96857.71;108697;1254;101625;-86
2023/08/25 10:56:21;;;;;;;8.20;7.40;;;;;;;26.19;59.63;96850.65;108661;1254;100476;-83
2023/08/25 10:58:56;;;;;;;;;;;;;;;26.33;59.01;96838.88;108654;1254;95538;-82
2023/08/25 11:01:39;;;;;;;8.50;7.60;;;;;;;26.49;59.46;96834.45;108718;1254;96038;-86
2023/08/25 11:04:12;;;;;;;11.40;8.40;;;;;;;26.73;58.55;96832.45;108685;1254;103721;-83
2023/08/25 11:06:42;;;;;;;10.10;7.50;;;;;;;27.00;58.00;96832.45;108664;1254;101456;-84
2023/08/25 11:09:31;;;;;;;9.00;7.30;;;;;;;27.24;57.63;96828.54;108692;1254;98967;-83
2023/08/25 11:12:03;;;;;;;10.00;7.30;;;;;;;27.45;57.31;96821.11;108701;1254;95622;-83
2023/08/25 11:14:33;;;;;;;8.90;7.60;;;;;;;27.64;57.40;96820.05;108703;1254;95492;-83
2023/08/25 11:17:10;;;;;;;13.50;7.50;;;;;;;27.79;57.73;96818.36;108664;1254;102602;-81
2023/08/25 11:19:39;;;;;;;9.40;7.40;;;;;;;27.94;57.46;96812.85;108739;1254;100335;-84
2023/08/25 11:22:11;;;;;;;13.20;7.90;;;;;;;28.12;56.94;96819.01;108693;1254;99220;-82
2023/08/25 11:24:39;;;;;;;;;;;;;;;28.30;55.70;96819.24;108667;1254;95649;-83
2023/08/25 11:27:11;;;;;;;12.00;7.40;;;;;;;28.48;55.44;96817.52;108670;1254;95553;-84